sim
Sign-in with your pilot id or email,
or register
Callsign
Passwort

Schedule Details

Flight Number: OEC11098
Departure: Funchal Cristiano Ronaldo Airport (LPMA) at 16:15 UTC
Arrival: Fuerteventura Airport (GCFV) at 18:47 UTC

Weather Information
Getting current METAR information for LPMA 182000Z 34009KT 270V040 9999 FEW015 17/09 Q1022
Getting current METAR information for GCFV 182000Z 36016KT 9999 FEW045 18/11 Q1019

Schedule Frequency

Route Map